sensor_id;sensor_type;location;lat;lon;timestamp;P1;durP1;ratioP1;P2;durP2;ratioP2
51883;SDS011;37915;53.254;6.598;2022-08-19T00:01:35;10.25;;;7.20;;
51883;SDS011;37915;53.254;6.598;2022-08-19T00:04:04;8.20;;;6.38;;
51883;SDS011;37915;53.254;6.598;2022-08-19T00:06:31;8.55;;;6.53;;
51883;SDS011;37915;53.254;6.598;2022-08-19T00:09:00;9.23;;;5.95;;
51883;SDS011;37915;53.254;6.598;2022-08-19T00:11:26;8.15;;;5.95;;
51883;SDS011;37915;53.254;6.598;2022-08-19T00:13:53;8.48;;;5.72;;
51883;SDS011;37915;53.254;6.598;2022-08-19T00:16:21;10.73;;;5.65;;
51883;SDS011;37915;53.254;6.598;2022-08-19T00:18:47;8.40;;;5.45;;
51883;SDS011;37915;53.254;6.598;2022-08-19T00:21:13;10.23;;;6.55;;
51883;SDS011;37915;53.254;6.598;2022-08-19T00:23:40;12.82;;;5.85;;
51883;SDS011;37915;53.254;6.598;2022-08-19T00:26:07;10.82;;;5.65;;
51883;SDS011;37915;53.254;6.598;2022-08-19T00:28:33;8.98;;;5.65;;
51883;SDS011;37915;53.254;6.598;2022-08-19T00:31:01;8.27;;;5.50;;
51883;SDS011;37915;53.254;6.598;2022-08-19T00:33:31;7.55;;;5.68;;
51883;SDS011;37915;53.254;6.598;2022-08-19T00:35:58;10.48;;;5.20;;
51883;SDS011;37915;53.254;6.598;2022-08-19T00:38:29;8.32;;;5.78;;
51883;SDS011;37915;53.254;6.598;2022-08-19T00:40:55;9.02;;;6.10;;
51883;SDS011;37915;53.254;6.598;2022-08-19T00:43:23;9.30;;;5.35;;
51883;SDS011;37915;53.254;6.598;2022-08-19T00:45:51;8.07;;;5.50;;
51883;SDS011;37915;53.254;6.598;2022-08-19T00:48:17;8.75;;;6.00;;
51883;SDS011;37915;53.254;6.598;2022-08-19T00:50:44;10.95;;;6.15;;
51883;SDS011;37915;53.254;6.598;2022-08-19T00:53:11;10.88;;;6.28;;
51883;SDS011;37915;53.254;6.598;2022-08-19T00:55:40;7.90;;;5.22;;
51883;SDS011;37915;53.254;6.598;2022-08-19T00:58:10;9.15;;;5.25;;
51883;SDS011;37915;53.254;6.598;2022-08-19T01:00:38;8.07;;;5.47;;
51883;SDS011;37915;53.254;6.598;2022-08-19T01:03:07;7.95;;;5.70;;
51883;SDS011;37915;53.254;6.598;2022-08-19T01:05:36;8.95;;;6.20;;
51883;SDS011;37915;53.254;6.598;2022-08-19T01:08:03;8.38;;;6.15;;
51883;SDS011;37915;53.254;6.598;2022-08-19T01:10:32;11.32;;;5.78;;
51883;SDS011;37915;53.254;6.598;2022-08-19T01:13:02;8.25;;;5.70;;
51883;SDS011;37915;53.254;6.598;2022-08-19T01:15:30;11.15;;;5.72;;
51883;SDS011;37915;53.254;6.598;2022-08-19T01:18:04;8.80;;;6.38;;
51883;SDS011;37915;53.254;6.598;2022-08-19T01:20:32;9.35;;;6.47;;
51883;SDS011;37915;53.254;6.598;2022-08-19T01:22:59;8.57;;;6.32;;
51883;SDS011;37915;53.254;6.598;2022-08-19T01:25:38;10.60;;;6.43;;
51883;SDS011;37915;53.254;6.598;2022-08-19T01:28:12;7.32;;;5.72;;
51883;SDS011;37915;53.254;6.598;2022-08-19T01:30:40;10.70;;;6.07;;
51883;SDS011;37915;53.254;6.598;2022-08-19T01:33:06;8.48;;;6.70;;
51883;SDS011;37915;53.254;6.598;2022-08-19T01:35:32;9.73;;;6.55;;
51883;SDS011;37915;53.254;6.598;2022-08-19T01:38:01;9.65;;;6.68;;
51883;SDS011;37915;53.254;6.598;2022-08-19T01:40:34;8.10;;;6.32;;
51883;SDS011;37915;53.254;6.598;2022-08-19T01:43:03;10.80;;;6.70;;
51883;SDS011;37915;53.254;6.598;2022-08-19T01:45:29;9.32;;;5.72;;
51883;SDS011;37915;53.254;6.598;2022-08-19T01:47:56;9.25;;;6.28;;
51883;SDS011;37915;53.254;6.598;2022-08-19T01:50:23;10.38;;;6.63;;
51883;SDS011;37915;53.254;6.598;2022-08-19T01:52:49;12.50;;;6.40;;
51883;SDS011;37915;53.254;6.598;2022-08-19T01:55:16;11.73;;;5.78;;
51883;SDS011;37915;53.254;6.598;2022-08-19T01:57:46;12.15;;;6.22;;
51883;SDS011;37915;53.254;6.598;2022-08-19T02:00:15;11.05;;;5.93;;
51883;SDS011;37915;53.254;6.598;2022-08-19T02:02:42;8.40;;;6.30;;
51883;SDS011;37915;53.254;6.598;2022-08-19T02:05:08;9.95;;;6.28;;
51883;SDS011;37915;53.254;6.598;2022-08-19T02:07:35;8.85;;;5.57;;
51883;SDS011;37915;53.254;6.598;2022-08-19T02:10:06;11.48;;;6.18;;
51883;SDS011;37915;53.254;6.598;2022-08-19T02:12:34;9.73;;;6.07;;
51883;SDS011;37915;53.254;6.598;2022-08-19T02:15:00;8.80;;;6.72;;
51883;SDS011;37915;53.254;6.598;2022-08-19T02:17:27;10.70;;;6.65;;
51883;SDS011;37915;53.254;6.598;2022-08-19T02:19:54;10.38;;;6.63;;
51883;SDS011;37915;53.254;6.598;2022-08-19T02:22:21;10.93;;;7.28;;
51883;SDS011;37915;53.254;6.598;2022-08-19T02:24:47;10.32;;;7.05;;
51883;SDS011;37915;53.254;6.598;2022-08-19T02:27:14;12.48;;;7.82;;
51883;SDS011;37915;53.254;6.598;2022-08-19T02:29:40;11.90;;;8.32;;
51883;SDS011;37915;53.254;6.598;2022-08-19T02:32:06;11.55;;;7.60;;
51883;SDS011;37915;53.254;6.598;2022-08-19T02:34:32;11.27;;;7.35;;
51883;SDS011;37915;53.254;6.598;2022-08-19T02:36:58;11.75;;;7.43;;
51883;SDS011;37915;53.254;6.598;2022-08-19T02:39:25;9.95;;;7.38;;
51883;SDS011;37915;53.254;6.598;2022-08-19T02:41:51;9.23;;;7.38;;
51883;SDS011;37915;53.254;6.598;2022-08-19T02:44:18;11.50;;;7.93;;
51883;SDS011;37915;53.254;6.598;2022-08-19T02:46:45;12.70;;;7.88;;
51883;SDS011;37915;53.254;6.598;2022-08-19T02:49:12;12.82;;;7.90;;
51883;SDS011;37915;53.254;6.598;2022-08-19T02:51:42;11.93;;;7.85;;
51883;SDS011;37915;53.254;6.598;2022-08-19T02:54:09;9.45;;;7.18;;
51883;SDS011;37915;53.254;6.598;2022-08-19T02:56:36;10.73;;;7.07;;
51883;SDS011;37915;53.254;6.598;2022-08-19T02:59:03;12.82;;;7.78;;
51883;SDS011;37915;53.254;6.598;2022-08-19T03:01:36;13.65;;;8.15;;
51883;SDS011;37915;53.254;6.598;2022-08-19T03:04:05;12.27;;;8.23;;
51883;SDS011;37915;53.254;6.598;2022-08-19T03:06:32;10.43;;;7.55;;
51883;SDS011;37915;53.254;6.598;2022-08-19T03:09:00;11.55;;;8.02;;
51883;SDS011;37915;53.254;6.598;2022-08-19T03:11:28;13.10;;;8.77;;
51883;SDS011;37915;53.254;6.598;2022-08-19T03:13:55;13.15;;;8.15;;
51883;SDS011;37915;53.254;6.598;2022-08-19T03:16:23;13.32;;;8.23;;
51883;SDS011;37915;53.254;6.598;2022-08-19T03:18:51;11.75;;;7.95;;
51883;SDS011;37915;53.254;6.598;2022-08-19T03:21:21;12.07;;;7.70;;
51883;SDS011;37915;53.254;6.598;2022-08-19T03:23:49;11.05;;;8.13;;
51883;SDS011;37915;53.254;6.598;2022-08-19T03:26:15;12.65;;;7.50;;
51883;SDS011;37915;53.254;6.598;2022-08-19T03:28:41;16.08;;;7.55;;
51883;SDS011;37915;53.254;6.598;2022-08-19T03:31:12;11.10;;;7.60;;
51883;SDS011;37915;53.254;6.598;2022-08-19T03:33:39;10.77;;;7.35;;
51883;SDS011;37915;53.254;6.598;2022-08-19T03:36:14;13.90;;;8.20;;
51883;SDS011;37915;53.254;6.598;2022-08-19T03:38:46;10.93;;;7.30;;
51883;SDS011;37915;53.254;6.598;2022-08-19T03:41:16;12.27;;;8.00;;
51883;SDS011;37915;53.254;6.598;2022-08-19T03:43:44;9.65;;;6.80;;
51883;SDS011;37915;53.254;6.598;2022-08-19T03:46:16;9.50;;;6.70;;
51883;SDS011;37915;53.254;6.598;2022-08-19T03:48:46;9.98;;;7.53;;
51883;SDS011;37915;53.254;6.598;2022-08-19T03:51:17;10.02;;;7.07;;
51883;SDS011;37915;53.254;6.598;2022-08-19T03:53:45;10.00;;;7.45;;
51883;SDS011;37915;53.254;6.598;2022-08-19T03:56:11;11.38;;;6.93;;
51883;SDS011;37915;53.254;6.598;2022-08-19T03:58:39;10.70;;;7.50;;
51883;SDS011;37915;53.254;6.598;2022-08-19T04:01:15;9.35;;;6.40;;
51883;SDS011;37915;53.254;6.598;2022-08-19T04:03:43;12.02;;;6.72;;
51883;SDS011;37915;53.254;6.598;2022-08-19T04:08:48;11.10;;;6.85;;
51883;SDS011;37915;53.254;6.598;2022-08-19T04:11:17;10.02;;;6.60;;
51883;SDS011;37915;53.254;6.598;2022-08-19T04:13:48;12.05;;;7.47;;
51883;SDS011;37915;53.254;6.598;2022-08-19T04:16:15;10.05;;;6.63;;
51883;SDS011;37915;53.254;6.598;2022-08-19T04:18:41;11.07;;;6.82;;
51883;SDS011;37915;53.254;6.598;2022-08-19T04:21:07;11.60;;;7.72;;
51883;SDS011;37915;53.254;6.598;2022-08-19T04:23:33;11.63;;;6.68;;
51883;SDS011;37915;53.254;6.598;2022-08-19T04:26:01;9.77;;;7.53;;
51883;SDS011;37915;53.254;6.598;2022-08-19T04:28:27;10.43;;;7.30;;
51883;SDS011;37915;53.254;6.598;2022-08-19T04:30:54;9.63;;;7.13;;
51883;SDS011;37915;53.254;6.598;2022-08-19T04:33:22;12.05;;;7.05;;
51883;SDS011;37915;53.254;6.598;2022-08-19T04:35:50;11.57;;;7.55;;
51883;SDS011;37915;53.254;6.598;2022-08-19T04:38:18;11.13;;;7.13;;
51883;SDS011;37915;53.254;6.598;2022-08-19T04:40:46;9.23;;;6.65;;
51883;SDS011;37915;53.254;6.598;2022-08-19T04:43:32;10.40;;;6.80;;
51883;SDS011;37915;53.254;6.598;2022-08-19T04:46:04;9.98;;;6.22;;
51883;SDS011;37915;53.254;6.598;2022-08-19T04:48:35;8.75;;;6.82;;
51883;SDS011;37915;53.254;6.598;2022-08-19T04:51:05;12.05;;;6.55;;
51883;SDS011;37915;53.254;6.598;2022-08-19T04:53:34;9.48;;;7.07;;
51883;SDS011;37915;53.254;6.598;2022-08-19T04:56:04;11.88;;;7.25;;
51883;SDS011;37915;53.254;6.598;2022-08-19T04:58:36;10.55;;;6.80;;
51883;SDS011;37915;53.254;6.598;2022-08-19T05:01:03;9.88;;;7.38;;
51883;SDS011;37915;53.254;6.598;2022-08-19T05:03:29;11.38;;;7.15;;
51883;SDS011;37915;53.254;6.598;2022-08-19T05:06:03;9.85;;;6.80;;
51883;SDS011;37915;53.254;6.598;2022-08-19T05:08:32;13.02;;;7.05;;
51883;SDS011;37915;53.254;6.598;2022-08-19T05:10:59;10.90;;;7.18;;
51883;SDS011;37915;53.254;6.598;2022-08-19T05:13:25;11.73;;;7.65;;
51883;SDS011;37915;53.254;6.598;2022-08-19T05:15:58;10.40;;;7.25;;
51883;SDS011;37915;53.254;6.598;2022-08-19T05:18:24;9.38;;;5.88;;
51883;SDS011;37915;53.254;6.598;2022-08-19T05:21:09;9.95;;;6.25;;
51883;SDS011;37915;53.254;6.598;2022-08-19T05:23:55;10.07;;;7.32;;
51883;SDS011;37915;53.254;6.598;2022-08-19T05:26:22;10.52;;;7.20;;
51883;SDS011;37915;53.254;6.598;2022-08-19T05:28:51;10.23;;;6.45;;
51883;SDS011;37915;53.254;6.598;2022-08-19T05:31:17;12.40;;;7.50;;
51883;SDS011;37915;53.254;6.598;2022-08-19T05:33:43;11.80;;;7.68;;
51883;SDS011;37915;53.254;6.598;2022-08-19T05:36:08;11.75;;;6.65;;
51883;SDS011;37915;53.254;6.598;2022-08-19T05:38:34;12.15;;;7.43;;
51883;SDS011;37915;53.254;6.598;2022-08-19T05:41:05;10.55;;;6.53;;
51883;SDS011;37915;53.254;6.598;2022-08-19T05:43:35;11.27;;;7.47;;
51883;SDS011;37915;53.254;6.598;2022-08-19T05:46:02;10.90;;;7.38;;
51883;SDS011;37915;53.254;6.598;2022-08-19T05:48:31;12.88;;;7.38;;
51883;SDS011;37915;53.254;6.598;2022-08-19T05:51:06;14.32;;;7.18;;
51883;SDS011;37915;53.254;6.598;2022-08-19T05:56:09;11.40;;;7.22;;
51883;SDS011;37915;53.254;6.598;2022-08-19T05:58:41;11.18;;;7.50;;
51883;SDS011;37915;53.254;6.598;2022-08-19T06:01:10;14.35;;;7.47;;
51883;SDS011;37915;53.254;6.598;2022-08-19T06:03:40;13.02;;;7.25;;
51883;SDS011;37915;53.254;6.598;2022-08-19T06:06:07;12.38;;;7.15;;
51883;SDS011;37915;53.254;6.598;2022-08-19T06:08:34;11.40;;;7.47;;
51883;SDS011;37915;53.254;6.598;2022-08-19T06:14:06;12.98;;;7.78;;
51883;SDS011;37915;53.254;6.598;2022-08-19T06:16:40;12.43;;;8.05;;
51883;SDS011;37915;53.254;6.598;2022-08-19T06:19:08;11.77;;;8.45;;
51883;SDS011;37915;53.254;6.598;2022-08-19T06:21:36;14.75;;;8.15;;
51883;SDS011;37915;53.254;6.598;2022-08-19T06:24:09;11.45;;;7.90;;
51883;SDS011;37915;53.254;6.598;2022-08-19T06:26:37;11.60;;;7.88;;
51883;SDS011;37915;53.254;6.598;2022-08-19T06:29:04;10.73;;;6.80;;
51883;SDS011;37915;53.254;6.598;2022-08-19T06:31:33;10.90;;;6.57;;
51883;SDS011;37915;53.254;6.598;2022-08-19T06:34:00;10.35;;;7.10;;
51883;SDS011;37915;53.254;6.598;2022-08-19T06:36:31;10.50;;;6.68;;
51883;SDS011;37915;53.254;6.598;2022-08-19T06:38:59;10.23;;;6.47;;
51883;SDS011;37915;53.254;6.598;2022-08-19T06:41:27;10.35;;;6.88;;
51883;SDS011;37915;53.254;6.598;2022-08-19T06:43:54;9.93;;;6.15;;
51883;SDS011;37915;53.254;6.598;2022-08-19T06:46:20;11.70;;;6.72;;
51883;SDS011;37915;53.254;6.598;2022-08-19T06:48:46;9.77;;;6.15;;
51883;SDS011;37915;53.254;6.598;2022-08-19T06:51:16;10.32;;;7.20;;
51883;SDS011;37915;53.254;6.598;2022-08-19T06:53:46;9.90;;;6.00;;
51883;SDS011;37915;53.254;6.598;2022-08-19T06:56:13;9.32;;;6.95;;
51883;SDS011;37915;53.254;6.598;2022-08-19T06:58:41;11.60;;;6.97;;
51883;SDS011;37915;53.254;6.598;2022-08-19T07:01:07;10.45;;;6.10;;
51883;SDS011;37915;53.254;6.598;2022-08-19T07:03:34;9.50;;;6.10;;
51883;SDS011;37915;53.254;6.598;2022-08-19T07:06:07;8.20;;;5.95;;
51883;SDS011;37915;53.254;6.598;2022-08-19T07:08:36;9.63;;;6.18;;
51883;SDS011;37915;53.254;6.598;2022-08-19T07:11:07;7.82;;;6.20;;
51883;SDS011;37915;53.254;6.598;2022-08-19T07:13:34;9.40;;;5.72;;
51883;SDS011;37915;53.254;6.598;2022-08-19T07:16:08;9.77;;;6.07;;
51883;SDS011;37915;53.254;6.598;2022-08-19T07:18:37;9.07;;;6.25;;
51883;SDS011;37915;53.254;6.598;2022-08-19T07:21:07;11.40;;;6.53;;
51883;SDS011;37915;53.254;6.598;2022-08-19T07:23:38;8.55;;;6.18;;
51883;SDS011;37915;53.254;6.598;2022-08-19T07:26:08;10.98;;;6.38;;
51883;SDS011;37915;53.254;6.598;2022-08-19T07:28:39;8.57;;;6.50;;
51883;SDS011;37915;53.254;6.598;2022-08-19T07:31:08;10.30;;;6.53;;
51883;SDS011;37915;53.254;6.598;2022-08-19T07:33:37;10.98;;;6.78;;
51883;SDS011;37915;53.254;6.598;2022-08-19T07:36:05;9.38;;;6.38;;
51883;SDS011;37915;53.254;6.598;2022-08-19T07:38:33;8.88;;;6.20;;
51883;SDS011;37915;53.254;6.598;2022-08-19T07:40:59;8.02;;;5.95;;
51883;SDS011;37915;53.254;6.598;2022-08-19T07:43:26;8.18;;;5.82;;
51883;SDS011;37915;53.254;6.598;2022-08-19T07:45:52;10.60;;;7.00;;
51883;SDS011;37915;53.254;6.598;2022-08-19T07:48:21;10.00;;;6.35;;
51883;SDS011;37915;53.254;6.598;2022-08-19T07:50:56;12.35;;;6.43;;
51883;SDS011;37915;53.254;6.598;2022-08-19T07:53:27;8.45;;;6.20;;
51883;SDS011;37915;53.254;6.598;2022-08-19T07:55:54;9.30;;;6.55;;
51883;SDS011;37915;53.254;6.598;2022-08-19T07:58:21;7.85;;;5.63;;
51883;SDS011;37915;53.254;6.598;2022-08-19T08:00:48;8.60;;;6.30;;
51883;SDS011;37915;53.254;6.598;2022-08-19T08:03:16;10.25;;;6.95;;
51883;SDS011;37915;53.254;6.598;2022-08-19T08:05:44;12.20;;;7.35;;
51883;SDS011;37915;53.254;6.598;2022-08-19T08:08:30;11.18;;;6.97;;
51883;SDS011;37915;53.254;6.598;2022-08-19T08:11:02;9.38;;;6.00;;
51883;SDS011;37915;53.254;6.598;2022-08-19T08:13:29;10.45;;;7.05;;
51883;SDS011;37915;53.254;6.598;2022-08-19T08:15:56;9.55;;;6.43;;
51883;SDS011;37915;53.254;6.598;2022-08-19T08:18:22;8.63;;;7.05;;
51883;SDS011;37915;53.254;6.598;2022-08-19T08:20:49;13.48;;;6.07;;
51883;SDS011;37915;53.254;6.598;2022-08-19T08:23:15;8.70;;;6.82;;
51883;SDS011;37915;53.254;6.598;2022-08-19T08:25:56;9.18;;;6.45;;
51883;SDS011;37915;53.254;6.598;2022-08-19T08:28:23;8.20;;;5.93;;
51883;SDS011;37915;53.254;6.598;2022-08-19T08:30:50;10.07;;;6.00;;
51883;SDS011;37915;53.254;6.598;2022-08-19T08:33:17;7.82;;;4.90;;
51883;SDS011;37915;53.254;6.598;2022-08-19T08:35:46;6.82;;;4.78;;
51883;SDS011;37915;53.254;6.598;2022-08-19T08:38:12;7.68;;;4.95;;
51883;SDS011;37915;53.254;6.598;2022-08-19T08:40:46;6.20;;;4.95;;
51883;SDS011;37915;53.254;6.598;2022-08-19T08:43:20;6.63;;;4.60;;
51883;SDS011;37915;53.254;6.598;2022-08-19T08:45:47;6.43;;;3.83;;
51883;SDS011;37915;53.254;6.598;2022-08-19T08:51:08;6.63;;;4.78;;
51883;SDS011;37915;53.254;6.598;2022-08-19T08:53:36;5.70;;;4.30;;
51883;SDS011;37915;53.254;6.598;2022-08-19T08:56:04;7.90;;;6.20;;
51883;SDS011;37915;53.254;6.598;2022-08-19T08:58:39;6.35;;;5.20;;
51883;SDS011;37915;53.254;6.598;2022-08-19T09:01:29;8.75;;;6.13;;
51883;SDS011;37915;53.254;6.598;2022-08-19T09:03:54;8.38;;;6.70;;
51883;SDS011;37915;53.254;6.598;2022-08-19T09:16:57;9.25;;;6.88;;
51883;SDS011;37915;53.254;6.598;2022-08-19T09:19:24;8.63;;;6.85;;
51883;SDS011;37915;53.254;6.598;2022-08-19T09:21:50;9.20;;;6.38;;
51883;SDS011;37915;53.254;6.598;2022-08-19T09:24:16;8.85;;;6.00;;
51883;SDS011;37915;53.254;6.598;2022-08-19T09:26:41;6.90;;;5.68;;
51883;SDS011;37915;53.254;6.598;2022-08-19T09:29:09;6.95;;;5.85;;
51883;SDS011;37915;53.254;6.598;2022-08-19T09:31:35;8.02;;;5.95;;
51883;SDS011;37915;53.254;6.598;2022-08-19T09:34:01;8.13;;;6.35;;
51883;SDS011;37915;53.254;6.598;2022-08-19T09:36:29;8.35;;;5.90;;
51883;SDS011;37915;53.254;6.598;2022-08-19T09:38:58;8.90;;;6.53;;
51883;SDS011;37915;53.254;6.598;2022-08-19T09:41:25;8.02;;;6.20;;
51883;SDS011;37915;53.254;6.598;2022-08-19T09:43:52;9.30;;;5.65;;
51883;SDS011;37915;53.254;6.598;2022-08-19T09:46:21;7.28;;;5.82;;
51883;SDS011;37915;53.254;6.598;2022-08-19T09:48:49;7.32;;;5.50;;
51883;SDS011;37915;53.254;6.598;2022-08-19T09:51:17;6.53;;;5.35;;
51883;SDS011;37915;53.254;6.598;2022-08-19T09:53:45;6.57;;;5.40;;
51883;SDS011;37915;53.254;6.598;2022-08-19T09:56:12;8.10;;;5.53;;
51883;SDS011;37915;53.254;6.598;2022-08-19T09:58:39;8.15;;;6.32;;
51883;SDS011;37915;53.254;6.598;2022-08-19T10:01:06;8.68;;;6.35;;
51883;SDS011;37915;53.254;6.598;2022-08-19T10:03:33;8.05;;;6.55;;
51883;SDS011;37915;53.254;6.598;2022-08-19T10:06:02;8.82;;;7.10;;
51883;SDS011;37915;53.254;6.598;2022-08-19T10:08:30;7.70;;;5.85;;
51883;SDS011;37915;53.254;6.598;2022-08-19T10:10:58;7.35;;;4.95;;
51883;SDS011;37915;53.254;6.598;2022-08-19T10:13:27;8.07;;;6.55;;
51883;SDS011;37915;53.254;6.598;2022-08-19T10:16:03;8.15;;;6.60;;
51883;SDS011;37915;53.254;6.598;2022-08-19T10:18:33;8.80;;;6.53;;
51883;SDS011;37915;53.254;6.598;2022-08-19T10:21:12;7.07;;;5.78;;
51883;SDS011;37915;53.254;6.598;2022-08-19T10:23:41;8.20;;;7.03;;
51883;SDS011;37915;53.254;6.598;2022-08-19T10:26:10;9.98;;;7.72;;
51883;SDS011;37915;53.254;6.598;2022-08-19T10:28:38;11.57;;;8.60;;
51883;SDS011;37915;53.254;6.598;2022-08-19T10:31:05;7.95;;;6.60;;
51883;SDS011;37915;53.254;6.598;2022-08-19T10:33:35;7.43;;;6.03;;
51883;SDS011;37915;53.254;6.598;2022-08-19T10:36:03;8.80;;;7.30;;
51883;SDS011;37915;53.254;6.598;2022-08-19T10:38:32;7.55;;;6.28;;
51883;SDS011;37915;53.254;6.598;2022-08-19T10:41:06;8.35;;;7.03;;
51883;SDS011;37915;53.254;6.598;2022-08-19T10:43:36;9.02;;;6.78;;
51883;SDS011;37915;53.254;6.598;2022-08-19T10:46:04;10.40;;;7.32;;
51883;SDS011;37915;53.254;6.598;2022-08-19T10:48:34;8.60;;;7.68;;
51883;SDS011;37915;53.254;6.598;2022-08-19T10:51:00;11.52;;;7.85;;
51883;SDS011;37915;53.254;6.598;2022-08-19T10:53:45;8.90;;;7.68;;
51883;SDS011;37915;53.254;6.598;2022-08-19T10:56:11;10.30;;;7.07;;
51883;SDS011;37915;53.254;6.598;2022-08-19T10:58:56;11.02;;;7.50;;
51883;SDS011;37915;53.254;6.598;2022-08-19T11:01:23;10.80;;;7.65;;
51883;SDS011;37915;53.254;6.598;2022-08-19T11:03:50;11.20;;;9.00;;
51883;SDS011;37915;53.254;6.598;2022-08-19T11:06:16;9.05;;;7.50;;
51883;SDS011;37915;53.254;6.598;2022-08-19T11:08:41;10.77;;;9.15;;
51883;SDS011;37915;53.254;6.598;2022-08-19T11:11:09;10.02;;;8.05;;
51883;SDS011;37915;53.254;6.598;2022-08-19T11:13:36;10.98;;;8.80;;
51883;SDS011;37915;53.254;6.598;2022-08-19T11:16:37;10.65;;;8.30;;
51883;SDS011;37915;53.254;6.598;2022-08-19T11:18:58;11.02;;;8.40;;
51883;SDS011;37915;53.254;6.598;2022-08-19T11:21:26;13.68;;;9.18;;
51883;SDS011;37915;53.254;6.598;2022-08-19T11:26:23;10.55;;;8.18;;
51883;SDS011;37915;53.254;6.598;2022-08-19T11:28:50;11.30;;;9.60;;
51883;SDS011;37915;53.254;6.598;2022-08-19T11:31:20;11.90;;;8.95;;
51883;SDS011;37915;53.254;6.598;2022-08-19T11:33:49;9.75;;;7.78;;
51883;SDS011;37915;53.254;6.598;2022-08-19T11:36:20;9.90;;;8.83;;
51883;SDS011;37915;53.254;6.598;2022-08-19T11:38:47;10.75;;;7.55;;
51883;SDS011;37915;53.254;6.598;2022-08-19T11:41:14;10.35;;;8.68;;
51883;SDS011;37915;53.254;6.598;2022-08-19T11:43:42;9.85;;;7.90;;
51883;SDS011;37915;53.254;6.598;2022-08-19T11:46:09;10.02;;;8.13;;
51883;SDS011;37915;53.254;6.598;2022-08-19T11:48:37;10.50;;;7.00;;
51883;SDS011;37915;53.254;6.598;2022-08-19T11:51:04;8.80;;;7.25;;
51883;SDS011;37915;53.254;6.598;2022-08-19T11:53:32;9.07;;;7.53;;
51883;SDS011;37915;53.254;6.598;2022-08-19T11:55:58;10.15;;;8.32;;
51883;SDS011;37915;53.254;6.598;2022-08-19T11:58:24;10.77;;;9.30;;
51883;SDS011;37915;53.254;6.598;2022-08-19T12:00:50;10.13;;;8.45;;
51883;SDS011;37915;53.254;6.598;2022-08-19T12:03:16;10.63;;;8.95;;
51883;SDS011;37915;53.254;6.598;2022-08-19T12:05:44;10.73;;;8.52;;
51883;SDS011;37915;53.254;6.598;2022-08-19T12:08:11;12.80;;;9.63;;
51883;SDS011;37915;53.254;6.598;2022-08-19T12:10:38;11.02;;;9.55;;
51883;SDS011;37915;53.254;6.598;2022-08-19T12:13:04;11.18;;;10.00;;
51883;SDS011;37915;53.254;6.598;2022-08-19T12:15:35;11.73;;;9.60;;
51883;SDS011;37915;53.254;6.598;2022-08-19T12:18:02;11.48;;;8.38;;
51883;SDS011;37915;53.254;6.598;2022-08-19T12:20:28;9.77;;;7.80;;
51883;SDS011;37915;53.254;6.598;2022-08-19T12:22:54;9.48;;;7.53;;
51883;SDS011;37915;53.254;6.598;2022-08-19T12:25:20;9.93;;;7.03;;
51883;SDS011;37915;53.254;6.598;2022-08-19T12:27:46;8.65;;;6.88;;
51883;SDS011;37915;53.254;6.598;2022-08-19T12:30:12;7.30;;;6.03;;
51883;SDS011;37915;53.254;6.598;2022-08-19T12:32:38;10.95;;;9.13;;
51883;SDS011;37915;53.254;6.598;2022-08-19T12:35:05;11.85;;;8.38;;
51883;SDS011;37915;53.254;6.598;2022-08-19T12:37:33;9.30;;;7.85;;
51883;SDS011;37915;53.254;6.598;2022-08-19T12:39:59;11.25;;;7.70;;
51883;SDS011;37915;53.254;6.598;2022-08-19T12:42:24;9.65;;;7.97;;
51883;SDS011;37915;53.254;6.598;2022-08-19T12:44:50;9.55;;;8.05;;
51883;SDS011;37915;53.254;6.598;2022-08-19T12:47:17;11.00;;;8.20;;
51883;SDS011;37915;53.254;6.598;2022-08-19T12:49:43;11.23;;;7.70;;
51883;SDS011;37915;53.254;6.598;2022-08-19T12:52:09;11.18;;;8.52;;
51883;SDS011;37915;53.254;6.598;2022-08-19T12:54:36;11.65;;;7.93;;
51883;SDS011;37915;53.254;6.598;2022-08-19T12:57:05;9.93;;;7.80;;
51883;SDS011;37915;53.254;6.598;2022-08-19T12:59:33;10.27;;;7.82;;
51883;SDS011;37915;53.254;6.598;2022-08-19T13:02:02;9.50;;;7.28;;
51883;SDS011;37915;53.254;6.598;2022-08-19T13:04:31;10.95;;;7.60;;
51883;SDS011;37915;53.254;6.598;2022-08-19T13:06:58;9.45;;;7.10;;
51883;SDS011;37915;53.254;6.598;2022-08-19T13:09:23;8.77;;;6.72;;
51883;SDS011;37915;53.254;6.598;2022-08-19T13:11:49;11.30;;;7.55;;
51883;SDS011;37915;53.254;6.598;2022-08-19T13:14:15;8.43;;;6.28;;
51883;SDS011;37915;53.254;6.598;2022-08-19T13:16:40;8.68;;;7.20;;
51883;SDS011;37915;53.254;6.598;2022-08-19T13:19:06;9.88;;;7.80;;
51883;SDS011;37915;53.254;6.598;2022-08-19T13:21:32;12.15;;;9.18;;
51883;SDS011;37915;53.254;6.598;2022-08-19T13:23:58;13.75;;;10.27;;
51883;SDS011;37915;53.254;6.598;2022-08-19T13:26:24;16.60;;;12.13;;
51883;SDS011;37915;53.254;6.598;2022-08-19T13:28:50;12.57;;;10.07;;
51883;SDS011;37915;53.254;6.598;2022-08-19T13:31:34;12.65;;;11.00;;
51883;SDS011;37915;53.254;6.598;2022-08-19T13:34:25;14.02;;;10.52;;
51883;SDS011;37915;53.254;6.598;2022-08-19T13:36:59;11.50;;;9.98;;
51883;SDS011;37915;53.254;6.598;2022-08-19T13:39:25;16.60;;;10.80;;
51883;SDS011;37915;53.254;6.598;2022-08-19T13:41:50;15.70;;;10.90;;
51883;SDS011;37915;53.254;6.598;2022-08-19T13:44:17;15.65;;;10.75;;
51883;SDS011;37915;53.254;6.598;2022-08-19T13:46:43;15.93;;;11.68;;
51883;SDS011;37915;53.254;6.598;2022-08-19T13:49:13;18.77;;;11.98;;
51883;SDS011;37915;53.254;6.598;2022-08-19T13:51:39;13.20;;;10.98;;
51883;SDS011;37915;53.254;6.598;2022-08-19T13:54:06;14.20;;;10.27;;
51883;SDS011;37915;53.254;6.598;2022-08-19T13:56:33;10.80;;;8.25;;
51883;SDS011;37915;53.254;6.598;2022-08-19T13:59:00;11.90;;;8.95;;
51883;SDS011;37915;53.254;6.598;2022-08-19T14:01:27;11.40;;;9.02;;
51883;SDS011;37915;53.254;6.598;2022-08-19T14:03:52;15.68;;;9.68;;
51883;SDS011;37915;53.254;6.598;2022-08-19T14:06:19;13.73;;;10.13;;
51883;SDS011;37915;53.254;6.598;2022-08-19T14:08:46;12.98;;;9.32;;
51883;SDS011;37915;53.254;6.598;2022-08-19T14:11:12;12.35;;;9.38;;
51883;SDS011;37915;53.254;6.598;2022-08-19T14:13:38;14.32;;;9.38;;
51883;SDS011;37915;53.254;6.598;2022-08-19T14:16:10;8.25;;;7.07;;
51883;SDS011;37915;53.254;6.598;2022-08-19T14:18:38;11.90;;;7.97;;
51883;SDS011;37915;53.254;6.598;2022-08-19T14:21:04;11.55;;;8.25;;
51883;SDS011;37915;53.254;6.598;2022-08-19T14:23:32;11.77;;;7.97;;
51883;SDS011;37915;53.254;6.598;2022-08-19T14:26:08;10.18;;;8.05;;
51883;SDS011;37915;53.254;6.598;2022-08-19T14:28:36;11.70;;;7.40;;
51883;SDS011;37915;53.254;6.598;2022-08-19T14:31:03;10.45;;;6.60;;
51883;SDS011;37915;53.254;6.598;2022-08-19T14:33:29;8.48;;;6.63;;
51883;SDS011;37915;53.254;6.598;2022-08-19T14:35:55;10.52;;;7.95;;
51883;SDS011;37915;53.254;6.598;2022-08-19T14:38:20;11.45;;;8.73;;
51883;SDS011;37915;53.254;6.598;2022-08-19T14:40:46;12.45;;;8.57;;
51883;SDS011;37915;53.254;6.598;2022-08-19T14:43:13;10.65;;;8.10;;
51883;SDS011;37915;53.254;6.598;2022-08-19T14:45:39;11.23;;;9.00;;
51883;SDS011;37915;53.254;6.598;2022-08-19T14:48:06;9.93;;;8.05;;
51883;SDS011;37915;53.254;6.598;2022-08-19T14:50:33;15.60;;;9.38;;
51883;SDS011;37915;53.254;6.598;2022-08-19T14:53:02;12.02;;;8.82;;
51883;SDS011;37915;53.254;6.598;2022-08-19T14:55:30;14.48;;;9.65;;
51883;SDS011;37915;53.254;6.598;2022-08-19T14:57:56;13.82;;;9.30;;
51883;SDS011;37915;53.254;6.598;2022-08-19T15:00:23;12.35;;;8.82;;
51883;SDS011;37915;53.254;6.598;2022-08-19T15:02:50;10.38;;;7.90;;
51883;SDS011;37915;53.254;6.598;2022-08-19T15:05:16;11.70;;;8.88;;
51883;SDS011;37915;53.254;6.598;2022-08-19T15:07:42;12.50;;;9.20;;
51883;SDS011;37915;53.254;6.598;2022-08-19T15:10:09;13.45;;;9.50;;
51883;SDS011;37915;53.254;6.598;2022-08-19T15:12:37;15.32;;;10.95;;